YEUL weather

Eulalia Airport
New South Wales, Australia

Public forecast

Using degrees Celsius for public forecast. Weather courtesy of forecast.io.

Closest aviation weather report (METAR) to Eulalia Airport

Closest report is Coonamble Airport, 10.8 nm (19.9 km) ENE. Retrieved 2020/08/03 23:00 UTC (58 minutes ago):

YCNM 032300Z AUTO 03004KT //// // ////// 12/07 Q1015

Closest aviation forecast (TAF) to Eulalia Airport

Forecast is more than 6 hours old.

Closest forecast is Dubbo City Regional Airport, 73.9 nm (136.9 km) SSE. Retrieved 2020/08/03 12:37 UTC (11 hours ago):

TAF YSDU 031122Z 0312/0406 VRB03KT CAVOK